Argus, CA

6:18 AM PDT on July 29, 2014 (GMT -0700)
China Lake NAWS (KNID) Elev 2283 ft | 35.69 °N, 117.69 °W | Change Station

Current weather conditions updated 22 minutes ago

Partly Cloudy
Partly Cloudy
75 °F
Feels Like 75 °F
N
4
Wind Variable Wind from WNW

Today is forecast to be Warmer than yesterday.

Today
High -- | Low -- °F
--% Chance of Precip.
Yesterday
High -- | Low -- °F
Precip. -- in
5:55 AM 7:56 PM
Waxing Crescent, 6% visible
Pressure 30.02 in
Visibility 10.0 miles
Clouds Few 25000 ft
Dew Point 56 °F
Humidity 51%
Rainfall 0.00 in
Snow Depth Not available.
UV 0 out of 12
Pollen 6.30 out of 12
Ozone Good
Flu Activity Not available.
METAR KNID 291256Z 30003KT 10SM FEW250 24/13 A3008 RMK AO2 SLP165 T02390133

More Conditions Fewer Conditions

Pressure 30.02 in
Visibility 10.0 miles
Clouds Few 25000 ft
Dew Point 56 °F
Humidity 51%
Rainfall 0.00 in
Snow Depth Not available.
UV 0 out of 12
Pollen 6.30 out of 12
Ozone Good
Flu Activity Not available.
METAR KNID 291256Z 30003KT 10SM FEW250 24/13 A3008 RMK AO2 SLP165 T02390133

More Conditions Fewer Conditions

10-Day Weather Forecast

Almanac

Astronomy

Jul. 29, 2014 Rise Set
Actual Time 5:55 AM PDT 7:56 PM PDT
Civil Twilight 5:26 AM PDT 8:24 PM PDT
Nautical Twilight 4:52 AM PDT 8:59 PM PDT
Astronomical Twilight 4:15 AM PDT 9:36 PM PDT
Moon 8:28 AM PDT 9:19 PM PDT
Length of Visible Light 14h 57m
Length of Day
14h 01m
Tomorrow will be 1m 37s shorter.
Waxing Crescent, 6% of the Moon is Illuminated
Today
Waxing Crescent
Aug 3
First Quarter
Aug 10
Full
Aug 17
Last Quarter
Aug 25
New

Today's Extremes

State Highs State Lows

Community

WunderPhotos

Upload Photos

1,738,713 photos uploaded!

Nearby

Air Quality

  Air Quality AQ Index Pollutant
Yesterday Good
OZONE
Yesterday Good
PM10
Current Good
OZONE
Tuesday Good
PM10
Tuesday Good
OZONE
Tuesday Good
CO
Tuesday Good
NO2

Snow Depth

Station Depth Elevation
Leavitt Lake 0 in 9400 ft
Leavitt Meadows 1 in 7200 ft
Summit Meadow 0 in 9122 ft
Monitor Pass 0 in 8350 ft
Blue Lakes 0 in 8000 ft

Earthquake Activity

City Distance Mag. Time & Date
Big Bear Lake, California 104 miles 2.5 5:50 AM PDT
2014-07-23
Minimum magnitude displayed is 2.5.

Coastal Water Temperatures

Place Temperature
No Stations Reporting

Nearby Weather Stations

Station Location Temp. Heat Index Dew Point Humidity Wind Precip. Elev Updated Type
City Hall, Ridgecrest, CA 73.9 °F 77 °F 56 °F 53% SSW  at  4.0 mph 0.00 in / hr 2315 ft 6:18 AM PDT Rapid Fire
Drummond between Brady and Mahan, Ridgecrest, CA 76.1 °F 78 °F 52 °F 43% North  at  2.0 mph 0.00 in / hr 2337 ft 6:15 AM PDT Normal
SW Ridgecrest, Ridgecrest, CA 73.9 °F 77 °F 55 °F 52% West  at  0.9 mph 0.00 in / hr 2475 ft 6:18 AM PDT Rapid Fire
5 miles West of town, Ridgecrest, CA 75.4 °F 78 °F 51 °F 43% NW  at  3.0 mph 0.00 in / hr 2400 ft 6:15 AM PDT Normal

Show More Stations Show Fewer Stations